createdAt,value
2017-09-06T00:00:19.932Z,1010.56
2017-09-06T00:01:28.823Z,1010.5
2017-09-06T00:02:37.655Z,1010.5
2017-09-06T00:03:46.490Z,1010.54
2017-09-06T00:04:55.324Z,1010.52
2017-09-06T00:06:04.159Z,1010.49
2017-09-06T00:07:12.987Z,1010.48
2017-09-06T00:08:21.816Z,1010.44
2017-09-06T00:09:30.648Z,1010.44
2017-09-06T00:10:39.482Z,1010.41
2017-09-06T00:11:48.313Z,1010.38
2017-09-06T00:12:57.146Z,1010.43
2017-09-06T00:14:05.975Z,1010.38
2017-09-06T00:15:14.810Z,1010.36
2017-09-06T00:16:23.639Z,1010.35
2017-09-06T00:17:32.474Z,1010.36
2017-09-06T00:18:41.303Z,1010.32
2017-09-06T00:19:50.135Z,1010.29
2017-09-06T00:20:58.963Z,1010.28
2017-09-06T00:22:07.793Z,1010.27
2017-09-06T00:23:16.629Z,1010.28
2017-09-06T00:24:25.461Z,1010.25
2017-09-06T00:25:34.290Z,1010.23
2017-09-06T00:26:43.128Z,1010.26
2017-09-06T00:27:51.959Z,1010.26
2017-09-06T00:29:00.788Z,1010.23
2017-09-06T00:30:09.622Z,1010.23
2017-09-06T00:31:18.457Z,1010.22
2017-09-06T00:32:27.283Z,1010.22
2017-09-06T00:33:36.117Z,1010.2
2017-09-06T00:34:44.946Z,1010.18
2017-09-06T00:35:53.783Z,1010.17
2017-09-06T00:37:02.614Z,1010.16
2017-09-06T00:38:11.441Z,1010.11
2017-09-06T00:39:20.271Z,1010.09
2017-09-06T00:40:29.426Z,1010.08
2017-09-06T00:41:38.255Z,1010.08
2017-09-06T00:42:47.092Z,1010.08
2017-09-06T00:43:55.928Z,1010.12
2017-09-06T00:45:04.756Z,1010.06
2017-09-06T00:46:13.581Z,1010.09
2017-09-06T00:47:22.416Z,1010.12
2017-09-06T00:48:31.252Z,1010.11
2017-09-06T00:49:40.082Z,1010.11
2017-09-06T00:50:48.913Z,1010.11
2017-09-06T00:51:57.740Z,1010.1
2017-09-06T00:53:06.571Z,1010.11
2017-09-06T00:54:15.406Z,1010.09
2017-09-06T00:55:24.238Z,1010.07
2017-09-06T00:56:33.065Z,1010.07
2017-09-06T00:57:41.901Z,1010.03
2017-09-06T00:58:50.728Z,1010.04
2017-09-06T00:59:59.562Z,1009.99
2017-09-06T01:01:08.395Z,1009.98
2017-09-06T01:02:17.225Z,1009.95
2017-09-06T01:03:26.058Z,1009.96
2017-09-06T01:04:34.887Z,1009.93
2017-09-06T01:05:43.720Z,1009.92
2017-09-06T01:06:52.549Z,1009.94
2017-09-06T01:08:01.381Z,1009.86
2017-09-06T01:09:10.214Z,1009.86
2017-09-06T01:10:19.046Z,1009.85
2017-09-06T01:11:27.876Z,1009.85
2017-09-06T01:12:36.708Z,1009.81
2017-09-06T01:13:45.535Z,1009.8
2017-09-06T01:14:54.364Z,1009.79
2017-09-06T01:16:03.194Z,1009.77
2017-09-06T01:17:12.026Z,1009.76
2017-09-06T01:18:20.856Z,1009.75
2017-09-06T01:19:29.689Z,1009.73
2017-09-06T01:20:38.519Z,1009.71
2017-09-06T01:21:47.355Z,1009.69
2017-09-06T01:22:56.180Z,1009.66
2017-09-06T01:24:05.017Z,1009.66
2017-09-06T01:25:13.848Z,1009.66
2017-09-06T01:26:22.686Z,1009.61
2017-09-06T01:27:31.514Z,1009.59
2017-09-06T01:28:40.344Z,1009.6
2017-09-06T01:29:49.173Z,1009.59
2017-09-06T01:30:58.033Z,1009.58
2017-09-06T01:32:06.838Z,1009.6
2017-09-06T01:33:15.664Z,1009.63
2017-09-06T01:34:24.501Z,1009.64
2017-09-06T01:35:33.329Z,1009.59
2017-09-06T01:36:42.157Z,1009.57
2017-09-06T01:37:50.991Z,1009.57
2017-09-06T01:38:59.821Z,1009.56
2017-09-06T01:40:08.649Z,1009.56
2017-09-06T01:41:17.480Z,1009.5
2017-09-06T01:42:26.313Z,1009.5
2017-09-06T01:43:35.141Z,1009.47
2017-09-06T01:44:43.972Z,1009.46
2017-09-06T01:45:52.805Z,1009.42
2017-09-06T01:47:01.636Z,1009.38
2017-09-06T01:48:10.470Z,1009.38
2017-09-06T01:49:19.300Z,1009.37
2017-09-06T01:50:28.129Z,1009.34
2017-09-06T01:51:36.964Z,1009.35
2017-09-06T01:52:46.116Z,1009.3
2017-09-06T01:53:54.950Z,1009.29
2017-09-06T01:55:03.779Z,1009.25
2017-09-06T01:56:12.613Z,1009.25
2017-09-06T01:57:21.435Z,1009.26
2017-09-06T01:58:30.265Z,1009.22
2017-09-06T01:59:39.103Z,1009.22
2017-09-06T02:00:47.929Z,1009.23
2017-09-06T02:01:56.761Z,1009.27
2017-09-06T02:03:05.591Z,1009.2
2017-09-06T02:04:14.421Z,1009.22
2017-09-06T02:05:23.254Z,1009.21
2017-09-06T02:06:32.082Z,1009.18
2017-09-06T02:07:40.910Z,1009.17
2017-09-06T02:08:49.736Z,1009.15
2017-09-06T02:09:58.571Z,1009.15
2017-09-06T02:11:07.398Z,1009.09
2017-09-06T02:12:16.237Z,1009.09
2017-09-06T02:13:25.068Z,1009.06
2017-09-06T02:14:33.895Z,1009.01
2017-09-06T02:15:42.721Z,1009
2017-09-06T02:16:51.554Z,1008.94
2017-09-06T02:18:00.382Z,1008.98
2017-09-06T02:19:09.214Z,1008.94
2017-09-06T02:20:18.046Z,1008.91
2017-09-06T02:21:26.879Z,1008.87
2017-09-06T02:22:35.701Z,1008.89
2017-09-06T02:23:44.533Z,1008.87
2017-09-06T02:24:53.357Z,1008.9
2017-09-06T02:26:02.193Z,1008.88
2017-09-06T02:27:11.027Z,1008.86
2017-09-06T02:28:19.855Z,1008.81
2017-09-06T02:29:28.684Z,1008.84
2017-09-06T02:30:37.519Z,1008.83
2017-09-06T02:31:46.351Z,1008.86
2017-09-06T02:32:55.179Z,1008.86
2017-09-06T02:34:04.012Z,1008.83
2017-09-06T02:35:12.843Z,1008.81
2017-09-06T02:36:21.670Z,1008.78
2017-09-06T02:37:30.510Z,1008.79
2017-09-06T02:38:39.341Z,1008.81
2017-09-06T02:39:48.174Z,1008.76
2017-09-06T02:40:57.337Z,1008.71
2017-09-06T02:42:06.166Z,1008.71
2017-09-06T02:43:14.995Z,1008.72
2017-09-06T02:44:23.826Z,1008.74
2017-09-06T02:45:32.657Z,1008.74
2017-09-06T02:46:41.483Z,1008.69
2017-09-06T02:47:50.315Z,1008.68
2017-09-06T02:48:59.145Z,1008.66
2017-09-06T02:50:07.976Z,1008.62
2017-09-06T02:51:16.812Z,1008.61
2017-09-06T02:52:25.641Z,1008.62
2017-09-06T02:53:34.467Z,1008.6
2017-09-06T02:54:43.296Z,1008.6
2017-09-06T02:55:52.129Z,1008.57
2017-09-06T02:57:00.959Z,1008.58
2017-09-06T02:58:09.787Z,1008.56
2017-09-06T02:59:18.622Z,1008.55
2017-09-06T03:00:27.454Z,1008.53
2017-09-06T03:01:36.282Z,1008.53
2017-09-06T03:02:45.110Z,1008.47
2017-09-06T03:03:53.940Z,1008.44
2017-09-06T03:05:03.104Z,1008.45
2017-09-06T03:06:11.933Z,1008.43
2017-09-06T03:07:21.356Z,1008.41
2017-09-06T03:08:30.208Z,1008.41
2017-09-06T03:09:39.060Z,1008.41
2017-09-06T03:10:47.912Z,1008.44
2017-09-06T03:11:56.761Z,1008.4
2017-09-06T03:13:05.610Z,1008.37
2017-09-06T03:14:14.468Z,1008.36
2017-09-06T03:15:23.316Z,1008.33
2017-09-06T03:16:32.167Z,1008.29
2017-09-06T03:17:41.386Z,1008.27
2017-09-06T03:18:50.233Z,1008.31
2017-09-06T03:19:59.080Z,1008.26
2017-09-06T03:21:07.932Z,1008.22
2017-09-06T03:22:16.784Z,1008.22
2017-09-06T03:23:25.632Z,1008.17
2017-09-06T03:24:34.482Z,1008.16
2017-09-06T03:25:43.330Z,1008.12
2017-09-06T03:26:52.180Z,1008.16
2017-09-06T03:28:01.031Z,1008.09
2017-09-06T03:29:09.883Z,1008.07
2017-09-06T03:30:18.731Z,1008.07
2017-09-06T03:31:27.581Z,1008.05
2017-09-06T03:32:36.432Z,1008.09
2017-09-06T03:33:45.278Z,1008.06
2017-09-06T03:34:54.128Z,1008.05
2017-09-06T03:36:02.980Z,1008.04
2017-09-06T03:37:11.829Z,1008.04
2017-09-06T03:38:20.679Z,1008.06
2017-09-06T03:39:29.529Z,1008.06
2017-09-06T03:40:38.375Z,1008.05
2017-09-06T03:41:47.228Z,1008.11
2017-09-06T03:42:56.080Z,1008.01
2017-09-06T03:44:04.928Z,1008.02
2017-09-06T03:45:13.780Z,1008
2017-09-06T03:46:22.628Z,1007.95
2017-09-06T03:47:31.478Z,1007.93
2017-09-06T03:48:40.327Z,1007.88
2017-09-06T03:49:49.176Z,1007.89
2017-09-06T03:50:58.028Z,1007.86
2017-09-06T03:52:06.876Z,1007.87
2017-09-06T03:53:15.728Z,1007.85
2017-09-06T03:54:24.577Z,1007.82
2017-09-06T03:55:33.427Z,1007.88
2017-09-06T03:56:42.278Z,1007.83
2017-09-06T03:57:51.128Z,1007.83
2017-09-06T03:58:59.973Z,1007.85
2017-09-06T04:00:08.825Z,1007.83
2017-09-06T04:01:17.672Z,1007.82
2017-09-06T04:02:26.527Z,1007.81
2017-09-06T04:03:35.378Z,1007.86
2017-09-06T04:04:44.227Z,1007.81
2017-09-06T04:05:53.076Z,1007.81
2017-09-06T04:07:01.926Z,1007.79
2017-09-06T04:08:10.774Z,1007.76
2017-09-06T04:09:19.624Z,1007.76
2017-09-06T04:10:28.474Z,1007.75
2017-09-06T04:11:37.323Z,1007.76
2017-09-06T04:12:46.172Z,1007.7
2017-09-06T04:13:55.023Z,1007.69
2017-09-06T04:15:03.870Z,1007.67
2017-09-06T04:16:12.720Z,1007.66
2017-09-06T04:17:21.573Z,1007.68
2017-09-06T04:18:30.424Z,1007.65
2017-09-06T04:19:39.271Z,1007.65
2017-09-06T04:20:48.120Z,1007.67
2017-09-06T04:21:56.969Z,1007.67
2017-09-06T04:23:05.821Z,1007.66
2017-09-06T04:24:14.672Z,1007.63
2017-09-06T04:25:23.550Z,1007.62
2017-09-06T04:26:32.367Z,1007.58
2017-09-06T04:27:41.220Z,1007.57
2017-09-06T04:28:50.073Z,1007.59
2017-09-06T04:29:58.923Z,1007.62
2017-09-06T04:31:07.773Z,1007.61
2017-09-06T04:32:16.625Z,1007.64
2017-09-06T04:33:25.475Z,1007.67
2017-09-06T04:34:34.330Z,1007.62
2017-09-06T04:35:43.183Z,1007.62
2017-09-06T04:36:52.031Z,1007.63
2017-09-06T04:38:00.881Z,1007.64
2017-09-06T04:39:09.730Z,1007.59
2017-09-06T04:40:18.580Z,1007.62
2017-09-06T04:41:27.431Z,1007.59
2017-09-06T04:42:36.282Z,1007.59
2017-09-06T04:43:45.129Z,1007.58
2017-09-06T04:44:53.981Z,1007.55
2017-09-06T04:46:02.827Z,1007.51
2017-09-06T04:47:11.674Z,1007.52
2017-09-06T04:48:20.524Z,1007.47
2017-09-06T04:49:29.704Z,1007.49
2017-09-06T04:50:38.552Z,1007.49
2017-09-06T04:51:47.403Z,1007.51
2017-09-06T04:52:56.251Z,1007.5
2017-09-06T04:54:05.101Z,1007.48
2017-09-06T04:55:13.954Z,1007.47
2017-09-06T04:56:22.804Z,1007.45
2017-09-06T04:57:31.653Z,1007.45
2017-09-06T04:58:40.502Z,1007.43
2017-09-06T04:59:49.352Z,1007.45
2017-09-06T05:00:58.202Z,1007.4
2017-09-06T05:02:07.050Z,1007.38
2017-09-06T05:03:15.900Z,1007.39
2017-09-06T05:04:24.751Z,1007.36
2017-09-06T05:05:33.600Z,1007.37
2017-09-06T05:06:42.461Z,1007.33
2017-09-06T05:07:51.352Z,1007.3
2017-09-06T05:09:00.203Z,1007.32
2017-09-06T05:10:09.056Z,1007.29
2017-09-06T05:11:17.901Z,1007.3
2017-09-06T05:12:26.791Z,1007.3
2017-09-06T05:13:35.647Z,1007.29
2017-09-06T05:14:44.497Z,1007.25
2017-09-06T05:15:53.349Z,1007.25
2017-09-06T05:17:02.202Z,1007.21
2017-09-06T05:18:11.048Z,1007.17
2017-09-06T05:19:19.899Z,1007.16
2017-09-06T05:20:28.752Z,1007.14
2017-09-06T05:21:37.602Z,1007.18
2017-09-06T05:22:46.454Z,1007.21
2017-09-06T05:23:55.302Z,1007.13
2017-09-06T05:25:04.153Z,1007.16
2017-09-06T05:26:13.001Z,1007.11
2017-09-06T05:27:21.851Z,1007.11
2017-09-06T05:28:30.701Z,1007.11
2017-09-06T05:29:39.553Z,1007.14
2017-09-06T05:30:48.403Z,1007.15
2017-09-06T05:31:57.250Z,1007.19
2017-09-06T05:33:06.099Z,1007.23
2017-09-06T05:34:15.283Z,1007.2
2017-09-06T05:35:24.534Z,1007.21
2017-09-06T05:36:33.544Z,1007.27
2017-09-06T05:37:42.440Z,1007.25
2017-09-06T05:38:51.366Z,1007.25
2017-09-06T05:40:00.302Z,1007.27
2017-09-06T05:41:09.200Z,1007.3
2017-09-06T05:42:18.153Z,1007.34
2017-09-06T05:43:27.044Z,1007.38
2017-09-06T05:44:35.979Z,1007.34
2017-09-06T05:45:44.861Z,1007.32
2017-09-06T05:46:54.074Z,1007.35
2017-09-06T05:48:02.927Z,1007.32
2017-09-06T05:49:11.833Z,1007.34
2017-09-06T05:50:20.685Z,1007.35
2017-09-06T05:51:29.536Z,1007.32
2017-09-06T05:52:38.387Z,1007.27
2017-09-06T05:53:47.591Z,1007.3
2017-09-06T05:54:56.447Z,1007.28
2017-09-06T05:56:05.300Z,1007.28
2017-09-06T05:57:14.152Z,1007.32
2017-09-06T05:58:23.001Z,1007.27
2017-09-06T05:59:31.850Z,1007.28
2017-09-06T06:00:40.701Z,1007.26
2017-09-06T06:01:49.554Z,1007.28
2017-09-06T06:02:58.457Z,1007.26
2017-09-06T06:04:07.456Z,1007.26
2017-09-06T06:05:16.397Z,1007.29
2017-09-06T06:06:25.415Z,1007.25
2017-09-06T06:07:34.602Z,1007.26
2017-09-06T06:08:43.849Z,1007.25
2017-09-06T06:09:52.701Z,1007.25
2017-09-06T06:11:01.595Z,1007.26
2017-09-06T06:12:10.450Z,1007.22
2017-09-06T06:13:19.472Z,1007.24
2017-09-06T06:14:28.946Z,1007.26
2017-09-06T06:15:37.799Z,1007.24
2017-09-06T06:16:47.017Z,1007.23
2017-09-06T06:17:55.913Z,1007.17
2017-09-06T06:19:04.945Z,1007.09
2017-09-06T06:20:13.962Z,1007.03
2017-09-06T06:21:22.811Z,1007.02
2017-09-06T06:22:32.049Z,1007.02
2017-09-06T06:23:40.912Z,1007.03
2017-09-06T06:24:49.836Z,1007.05
2017-09-06T06:25:58.832Z,1007
2017-09-06T06:27:08.014Z,1007.02
2017-09-06T06:28:16.948Z,1007.02
2017-09-06T06:29:26.127Z,1006.99
2017-09-06T06:30:35.450Z,1006.96
2017-09-06T06:31:44.659Z,1006.97
2017-09-06T06:32:53.524Z,1007.01
2017-09-06T06:34:02.571Z,1007.04
2017-09-06T06:35:11.548Z,1007.02
2017-09-06T06:36:20.416Z,1006.99
2017-09-06T06:37:29.421Z,1006.98
2017-09-06T06:38:38.271Z,1006.94
2017-09-06T06:39:47.202Z,1006.94
2017-09-06T06:40:56.055Z,1006.93
2017-09-06T06:42:04.907Z,1006.89
2017-09-06T06:43:13.759Z,1006.92
2017-09-06T06:44:22.613Z,1006.9
2017-09-06T06:45:31.463Z,1006.84
2017-09-06T06:46:40.309Z,1006.82
2017-09-06T06:47:49.161Z,1006.86
2017-09-06T06:48:58.012Z,1006.85
2017-09-06T06:50:06.865Z,1006.81
2017-09-06T06:51:15.871Z,1006.81
2017-09-06T06:52:24.720Z,1006.85
2017-09-06T06:53:33.695Z,1006.87
2017-09-06T06:54:42.695Z,1006.89
2017-09-06T06:55:51.849Z,1006.93
2017-09-06T06:57:01.347Z,1006.93
2017-09-06T06:58:10.686Z,1006.89
2017-09-06T06:59:19.538Z,1006.89
2017-09-06T07:00:28.542Z,1006.92
2017-09-06T07:01:37.420Z,1006.91
2017-09-06T07:02:46.389Z,1006.91
2017-09-06T07:03:55.238Z,1006.91
2017-09-06T07:05:04.277Z,1006.86
2017-09-06T07:06:13.128Z,1006.87
2017-09-06T07:07:22.076Z,1006.85
2017-09-06T07:08:31.005Z,1006.89
2017-09-06T07:09:40.172Z,1006.88
2017-09-06T07:10:49.095Z,1006.91
2017-09-06T07:11:58.297Z,1006.86
2017-09-06T07:13:07.149Z,1006.86
2017-09-06T07:14:16.155Z,1006.83
2017-09-06T07:15:25.006Z,1006.81
2017-09-06T07:16:34.047Z,1006.82
2017-09-06T07:17:43.294Z,1006.77
2017-09-06T07:18:52.535Z,1006.72
2017-09-06T07:20:01.433Z,1006.67
2017-09-06T07:21:10.651Z,1006.6
2017-09-06T07:22:19.619Z,1006.55
2017-09-06T07:23:28.729Z,1006.57
2017-09-06T07:24:37.582Z,1006.54
2017-09-06T07:25:46.432Z,1006.53
2017-09-06T07:26:55.286Z,1006.49
2017-09-06T07:28:04.140Z,1006.47
2017-09-06T07:29:12.991Z,1006.45
2017-09-06T07:30:21.840Z,1006.43
2017-09-06T07:31:30.724Z,1006.43
2017-09-06T07:32:39.660Z,1006.41
2017-09-06T07:33:49.546Z,1006.4
2017-09-06T07:34:59.142Z,1006.37
2017-09-06T07:36:08.170Z,1006.39
2017-09-06T07:37:17.019Z,1006.38
2017-09-06T07:38:26.275Z,1006.4
2017-09-06T07:39:35.457Z,1006.36
2017-09-06T07:40:44.308Z,1006.33
2017-09-06T07:41:53.511Z,1006.33
2017-09-06T07:43:02.330Z,1006.34
2017-09-06T07:44:11.181Z,1006.4
2017-09-06T07:45:20.035Z,1006.38
2017-09-06T07:46:28.888Z,1006.39
2017-09-06T07:47:37.738Z,1006.39
2017-09-06T07:48:46.591Z,1006.39
2017-09-06T07:49:55.440Z,1006.37
2017-09-06T07:51:04.616Z,1006.4
2017-09-06T07:52:13.467Z,1006.41
2017-09-06T07:53:22.320Z,1006.4
2017-09-06T07:54:31.169Z,1006.39
2017-09-06T07:55:40.022Z,1006.4
2017-09-06T07:56:48.874Z,1006.37
2017-09-06T07:57:57.727Z,1006.37
2017-09-06T07:59:06.580Z,1006.38
2017-09-06T08:00:15.431Z,1006.36
2017-09-06T08:01:24.283Z,1006.35
2017-09-06T08:02:33.137Z,1006.4
2017-09-06T08:03:41.990Z,1006.37
2017-09-06T08:04:51.224Z,1006.34
2017-09-06T08:06:00.446Z,1006.35
2017-09-06T08:07:09.888Z,1006.4
2017-09-06T08:08:18.976Z,1006.39
2017-09-06T08:09:28.079Z,1006.4
2017-09-06T08:10:37.023Z,1006.35
2017-09-06T08:11:45.871Z,1006.4
2017-09-06T08:12:54.724Z,1006.39
2017-09-06T08:14:03.901Z,1006.37
2017-09-06T08:15:12.750Z,1006.37
2017-09-06T08:16:21.600Z,1006.31
2017-09-06T08:17:30.453Z,1006.35
2017-09-06T08:18:39.302Z,1006.34
2017-09-06T08:19:48.156Z,1006.31
2017-09-06T08:20:57.013Z,1006.31
2017-09-06T08:22:05.864Z,1006.29
2017-09-06T08:23:14.716Z,1006.28
2017-09-06T08:24:23.598Z,1006.28
2017-09-06T08:25:32.419Z,1006.33
2017-09-06T08:26:41.271Z,1006.29
2017-09-06T08:27:50.125Z,1006.3
2017-09-06T08:28:58.975Z,1006.26
2017-09-06T08:30:07.830Z,1006.25
2017-09-06T08:31:17.006Z,1006.27
2017-09-06T08:32:25.856Z,1006.3
2017-09-06T08:33:34.709Z,1006.26
2017-09-06T08:34:43.560Z,1006.29
2017-09-06T08:35:52.407Z,1006.26
2017-09-06T08:37:01.256Z,1006.19
2017-09-06T08:38:10.110Z,1006.2
2017-09-06T08:39:18.959Z,1006.2
2017-09-06T08:40:27.814Z,1006.18
2017-09-06T08:41:36.665Z,1006.18
2017-09-06T08:42:45.515Z,1006.17
2017-09-06T08:43:54.366Z,1006.19
2017-09-06T08:45:03.218Z,1006.16
2017-09-06T08:46:12.073Z,1006.15
2017-09-06T08:47:20.923Z,1006.19
2017-09-06T08:48:29.773Z,1006.16
2017-09-06T08:49:38.622Z,1006.14
2017-09-06T08:50:47.469Z,1006.14
2017-09-06T08:51:56.325Z,1006.16
2017-09-06T08:53:05.176Z,1006.1
2017-09-06T08:54:14.023Z,1006.03
2017-09-06T08:55:22.875Z,1006
2017-09-06T08:56:31.725Z,1006.05
2017-09-06T08:57:40.577Z,1006.02
2017-09-06T08:58:49.430Z,1005.96
2017-09-06T08:59:58.284Z,1006
2017-09-06T09:01:07.132Z,1005.93
2017-09-06T09:02:15.984Z,1005.91
2017-09-06T09:03:24.833Z,1005.89
2017-09-06T09:04:33.682Z,1005.89
2017-09-06T09:05:42.536Z,1005.9
2017-09-06T09:06:51.386Z,1005.92
2017-09-06T09:08:00.241Z,1005.89
2017-09-06T09:09:09.092Z,1005.95
2017-09-06T09:10:17.942Z,1006.01
2017-09-06T09:11:26.792Z,1005.98
2017-09-06T09:12:35.644Z,1006.08
2017-09-06T09:13:44.492Z,1006.06
2017-09-06T09:14:53.344Z,1006
2017-09-06T09:16:02.192Z,1006
2017-09-06T09:17:11.042Z,1005.86
2017-09-06T09:18:19.895Z,1005.89
2017-09-06T09:19:28.744Z,1005.97
2017-09-06T09:20:37.592Z,1005.92
2017-09-06T09:21:46.446Z,1005.92
2017-09-06T09:22:55.297Z,1005.9
2017-09-06T09:24:04.145Z,1005.87
2017-09-06T09:25:12.998Z,1005.83
2017-09-06T09:26:21.844Z,1005.85
2017-09-06T09:27:30.699Z,1005.86
2017-09-06T09:28:39.548Z,1005.81
2017-09-06T09:29:48.400Z,1005.81
2017-09-06T09:30:57.254Z,1005.82
2017-09-06T09:32:06.106Z,1005.81
2017-09-06T09:33:14.952Z,1005.8
2017-09-06T09:34:23.803Z,1005.81
2017-09-06T09:35:32.654Z,1005.76
2017-09-06T09:36:41.504Z,1005.82
2017-09-06T09:37:50.352Z,1005.8
2017-09-06T09:38:59.205Z,1005.79
2017-09-06T09:40:08.379Z,1005.77
2017-09-06T09:41:17.229Z,1005.76
2017-09-06T09:42:26.081Z,1005.78
2017-09-06T09:43:34.930Z,1005.77
2017-09-06T09:44:43.778Z,1005.81
2017-09-06T09:45:52.629Z,1005.75
2017-09-06T09:47:01.481Z,1005.74
2017-09-06T09:48:10.328Z,1005.68
2017-09-06T09:49:19.179Z,1005.66
2017-09-06T09:50:28.028Z,1005.63
2017-09-06T09:51:36.878Z,1005.6
2017-09-06T09:52:45.730Z,1005.6
2017-09-06T09:53:54.581Z,1005.63
2017-09-06T09:55:03.430Z,1005.56
2017-09-06T09:56:12.281Z,1005.56
2017-09-06T09:57:21.137Z,1005.54
2017-09-06T09:58:29.984Z,1005.53
2017-09-06T09:59:38.833Z,1005.49
2017-09-06T10:00:47.686Z,1005.5
2017-09-06T10:01:56.534Z,1005.51
2017-09-06T10:03:05.387Z,1005.51
2017-09-06T10:04:14.239Z,1005.49
2017-09-06T10:05:23.086Z,1005.48
2017-09-06T10:06:31.934Z,1005.49
2017-09-06T10:07:40.788Z,1005.49
2017-09-06T10:08:49.641Z,1005.48
2017-09-06T10:09:58.492Z,1005.48
2017-09-06T10:11:07.345Z,1005.49
2017-09-06T10:12:16.193Z,1005.48
2017-09-06T10:13:25.046Z,1005.51
2017-09-06T10:14:33.899Z,1005.53
2017-09-06T10:15:42.801Z,1005.48
2017-09-06T10:16:51.736Z,1005.51
2017-09-06T10:18:00.590Z,1005.51
2017-09-06T10:19:09.439Z,1005.45
2017-09-06T10:20:18.955Z,1005.49
2017-09-06T10:21:28.654Z,1005.5
2017-09-06T10:22:37.504Z,1005.48
2017-09-06T10:23:46.357Z,1005.42
2017-09-06T10:24:55.210Z,1005.43
2017-09-06T10:26:04.060Z,1005.4
2017-09-06T10:27:12.922Z,1005.37
2017-09-06T10:28:21.774Z,1005.38
2017-09-06T10:29:30.626Z,1005.29
2017-09-06T10:30:39.483Z,1005.27
2017-09-06T10:31:48.336Z,1005.22
2017-09-06T10:32:57.200Z,1005.25
2017-09-06T10:34:06.049Z,1005.23
2017-09-06T10:35:14.900Z,1005.22
2017-09-06T10:36:23.754Z,1005.18
2017-09-06T10:37:32.604Z,1005.14
2017-09-06T10:38:41.460Z,1005.1
2017-09-06T10:39:50.310Z,1005.08
2017-09-06T10:40:59.158Z,1005.06
2017-09-06T10:42:08.009Z,1005.03
2017-09-06T10:43:16.866Z,1005.01
2017-09-06T10:44:25.716Z,1004.97
2017-09-06T10:45:34.568Z,1004.93
2017-09-06T10:46:43.418Z,1004.94
2017-09-06T10:47:52.267Z,1004.91
2017-09-06T10:49:01.120Z,1004.92
2017-09-06T10:50:09.972Z,1004.92
2017-09-06T10:51:18.861Z,1004.92
2017-09-06T10:52:27.712Z,1004.9
2017-09-06T10:53:36.914Z,1004.87
2017-09-06T10:54:45.797Z,1004.9
2017-09-06T10:55:54.767Z,1004.86
2017-09-06T10:57:03.985Z,1004.83
2017-09-06T10:58:12.879Z,1004.85
2017-09-06T10:59:21.731Z,1004.83
2017-09-06T11:00:30.581Z,1004.79
2017-09-06T11:01:39.432Z,1004.79
2017-09-06T11:02:48.281Z,1004.82
2017-09-06T11:03:57.136Z,1004.77
2017-09-06T11:05:05.988Z,1004.75
2017-09-06T11:06:14.839Z,1004.79
2017-09-06T11:07:23.692Z,1004.81
2017-09-06T11:08:32.546Z,1004.78
2017-09-06T11:09:41.402Z,1004.82
2017-09-06T11:10:50.248Z,1004.8
2017-09-06T11:11:59.102Z,1004.85
2017-09-06T11:13:07.958Z,1004.85
2017-09-06T11:14:16.808Z,1004.92
2017-09-06T11:15:25.657Z,1004.89
2017-09-06T11:16:34.506Z,1004.87
2017-09-06T11:17:43.360Z,1004.84
2017-09-06T11:18:52.217Z,1004.84
2017-09-06T11:20:01.070Z,1004.84
2017-09-06T11:21:10.241Z,1004.83
2017-09-06T11:22:19.095Z,1004.81
2017-09-06T11:23:27.967Z,1004.83
2017-09-06T11:24:36.925Z,1004.79
2017-09-06T11:25:45.777Z,1004.81
2017-09-06T11:26:54.709Z,1004.8
2017-09-06T11:28:03.605Z,1004.83
2017-09-06T11:29:12.459Z,1004.81
2017-09-06T11:30:21.328Z,1004.76
2017-09-06T11:31:30.225Z,1004.81
2017-09-06T11:32:39.080Z,1004.84
2017-09-06T11:33:47.931Z,1004.8
2017-09-06T11:34:56.781Z,1004.81
2017-09-06T11:36:05.637Z,1004.83
2017-09-06T11:37:14.489Z,1004.82
2017-09-06T11:38:23.340Z,1004.74
2017-09-06T11:39:32.234Z,1004.74
2017-09-06T11:40:41.101Z,1004.74
2017-09-06T11:41:50.050Z,1004.7
2017-09-06T11:42:59.027Z,1004.71
2017-09-06T11:44:07.958Z,1004.72
2017-09-06T11:45:16.813Z,1004.66
2017-09-06T11:46:25.662Z,1004.64
2017-09-06T11:47:34.516Z,1004.65
2017-09-06T11:48:43.696Z,1004.6
2017-09-06T11:49:52.873Z,1004.57
2017-09-06T11:51:01.725Z,1004.55
2017-09-06T11:52:10.573Z,1004.53
2017-09-06T11:53:19.426Z,1004.51
2017-09-06T11:54:28.280Z,1004.46
2017-09-06T11:55:37.128Z,1004.5
2017-09-06T11:56:45.980Z,1004.49
2017-09-06T11:57:54.834Z,1004.53
2017-09-06T11:59:03.683Z,1004.43
2017-09-06T12:00:12.535Z,1004.43
2017-09-06T12:01:21.715Z,1004.37
2017-09-06T12:02:30.567Z,1004.37
2017-09-06T12:03:39.417Z,1004.39
2017-09-06T12:04:48.268Z,1004.4
2017-09-06T12:05:57.118Z,1004.42
2017-09-06T12:07:05.970Z,1004.3
2017-09-06T12:08:14.824Z,1004.29
2017-09-06T12:09:23.671Z,1004.29
2017-09-06T12:10:32.521Z,1004.3
2017-09-06T12:11:41.378Z,1004.27
2017-09-06T12:12:50.229Z,1004.27
2017-09-06T12:13:59.081Z,1004.28
2017-09-06T12:15:07.932Z,1004.26
2017-09-06T12:16:16.779Z,1004.25
2017-09-06T12:17:25.630Z,1004.26
2017-09-06T12:18:34.484Z,1004.24
2017-09-06T12:19:43.333Z,1004.27
2017-09-06T12:20:52.187Z,1004.23
2017-09-06T12:22:01.041Z,1004.26
2017-09-06T12:23:09.893Z,1004.24
2017-09-06T12:24:18.743Z,1004.19
2017-09-06T12:25:27.596Z,1004.19
2017-09-06T12:26:36.449Z,1004.15
2017-09-06T12:27:45.297Z,1004.18
2017-09-06T12:28:54.152Z,1004.18
2017-09-06T12:30:03.001Z,1004.19
2017-09-06T12:31:11.850Z,1004.18
2017-09-06T12:32:20.705Z,1004.18
2017-09-06T12:33:29.558Z,1004.18
2017-09-06T12:34:38.409Z,1004.13
2017-09-06T12:35:47.263Z,1004.15
2017-09-06T12:36:56.114Z,1004.12
2017-09-06T12:38:04.966Z,1004.14
2017-09-06T12:39:13.817Z,1004.17
2017-09-06T12:40:22.669Z,1004.15
2017-09-06T12:41:31.518Z,1004.14
2017-09-06T12:42:40.374Z,1004.14
2017-09-06T12:43:49.226Z,1004.05
2017-09-06T12:44:58.079Z,1004.12
2017-09-06T12:46:06.934Z,1004.11
2017-09-06T12:47:15.788Z,1004.1
2017-09-06T12:48:24.641Z,1003.99
2017-09-06T12:49:33.494Z,1004.05
2017-09-06T12:50:42.345Z,1004.04
2017-09-06T12:51:51.198Z,1004.06
2017-09-06T12:53:00.051Z,1004.01
2017-09-06T12:54:08.905Z,1003.98
2017-09-06T12:55:17.754Z,1003.95
2017-09-06T12:56:26.609Z,1003.97
2017-09-06T12:57:35.462Z,1003.94
2017-09-06T12:58:44.313Z,1003.89
2017-09-06T12:59:53.165Z,1003.83
2017-09-06T13:01:02.013Z,1003.76
2017-09-06T13:02:10.866Z,1003.77
2017-09-06T13:03:19.721Z,1003.69
2017-09-06T13:04:28.571Z,1003.68
2017-09-06T13:05:37.424Z,1003.61
2017-09-06T13:06:46.273Z,1003.64
2017-09-06T13:07:55.119Z,1003.63
2017-09-06T13:09:03.975Z,1003.58
2017-09-06T13:10:12.826Z,1003.56
2017-09-06T13:11:21.675Z,1003.52
2017-09-06T13:12:30.530Z,1003.54
2017-09-06T13:13:39.378Z,1003.53
2017-09-06T13:14:48.231Z,1003.48
2017-09-06T13:15:57.085Z,1003.41
2017-09-06T13:17:05.937Z,1003.43
2017-09-06T13:18:14.788Z,1003.4
2017-09-06T13:19:23.639Z,1003.42
2017-09-06T13:20:32.492Z,1003.43
2017-09-06T13:21:41.343Z,1003.43
2017-09-06T13:22:50.197Z,1003.45
2017-09-06T13:23:59.053Z,1003.42
2017-09-06T13:25:07.902Z,1003.42
2017-09-06T13:26:16.753Z,1003.4
2017-09-06T13:27:25.605Z,1003.28
2017-09-06T13:28:34.459Z,1003.32
2017-09-06T13:29:43.312Z,1003.31
2017-09-06T13:30:52.166Z,1003.32
2017-09-06T13:32:01.017Z,1003.31
2017-09-06T13:33:09.872Z,1003.25
2017-09-06T13:34:18.721Z,1003.24
2017-09-06T13:35:27.571Z,1003.23
2017-09-06T13:36:36.427Z,1003.23
2017-09-06T13:37:45.282Z,1003.2
2017-09-06T13:38:54.134Z,1003.21
2017-09-06T13:40:02.992Z,1003.19
2017-09-06T13:41:12.178Z,1003.14
2017-09-06T13:42:21.362Z,1003.12
2017-09-06T13:43:30.212Z,1003.11
2017-09-06T13:44:39.066Z,1003.1
2017-09-06T13:45:47.915Z,1003.09
2017-09-06T13:46:56.767Z,1003.1
2017-09-06T13:48:05.621Z,1003.14
2017-09-06T13:49:14.475Z,1003.14
2017-09-06T13:50:23.331Z,1003.16
2017-09-06T13:51:32.184Z,1003.18
2017-09-06T13:52:41.034Z,1003.15
2017-09-06T13:53:49.881Z,1003.16
2017-09-06T13:54:58.733Z,1003.18
2017-09-06T13:56:07.584Z,1003.18